createdAt,value
2023-01-03T00:01:32.619Z,10.59
2023-01-03T00:04:02.186Z,10.45
2023-01-03T00:06:33.353Z,10.30
2023-01-03T00:09:05.601Z,10.24
2023-01-03T00:11:52.811Z,9.86
2023-01-03T00:14:24.516Z,10.22
2023-01-03T00:16:54.830Z,10.15
2023-01-03T00:19:24.522Z,9.72
2023-01-03T00:21:53.392Z,10.08
2023-01-03T00:24:23.705Z,10.03
2023-01-03T00:26:52.687Z,9.83
2023-01-03T00:29:20.993Z,9.97
2023-01-03T00:31:49.250Z,9.83
2023-01-03T00:34:17.590Z,9.73
2023-01-03T00:36:45.798Z,10.16
2023-01-03T00:39:14.342Z,10.08
2023-01-03T00:41:44.011Z,10.12
2023-01-03T00:44:13.812Z,10.24
2023-01-03T00:46:42.829Z,10.15
2023-01-03T00:49:11.612Z,10.06
2023-01-03T00:51:41.523Z,9.78
2023-01-03T00:54:11.051Z,9.91
2023-01-03T00:56:41.530Z,9.82
2023-01-03T00:59:12.042Z,9.81
2023-01-03T01:01:47.196Z,9.83
2023-01-03T01:04:18.435Z,10.12
2023-01-03T01:06:48.467Z,9.74
2023-01-03T01:09:19.748Z,9.80
2023-01-03T01:11:48.493Z,9.74
2023-01-03T01:14:21.843Z,9.66
2023-01-03T01:16:55.238Z,9.57
2023-01-03T01:19:26.940Z,9.55
2023-01-03T01:21:55.732Z,9.71
2023-01-03T01:24:24.047Z,9.87
2023-01-03T01:26:53.073Z,9.74
2023-01-03T01:29:22.985Z,9.71
2023-01-03T01:31:51.985Z,9.67
2023-01-03T01:34:20.305Z,9.69
2023-01-03T01:36:49.352Z,9.77
2023-01-03T01:39:20.489Z,9.86
2023-01-03T01:42:08.457Z,9.91
2023-01-03T01:44:49.688Z,9.75
2023-01-03T01:47:24.038Z,9.63
2023-01-03T01:49:56.308Z,9.52
2023-01-03T01:52:26.006Z,9.43
2023-01-03T01:54:56.027Z,9.62
2023-01-03T01:57:25.642Z,9.64
2023-01-03T01:59:55.256Z,10.02
2023-01-03T02:02:25.942Z,9.71
2023-01-03T02:04:56.736Z,9.86
2023-01-03T02:07:25.368Z,9.59
2023-01-03T02:09:57.066Z,9.71
2023-01-03T02:12:54.600Z,9.57
2023-01-03T02:15:37.914Z,9.55
2023-01-03T02:18:18.805Z,9.44
2023-01-03T02:21:21.615Z,9.86
2023-01-03T02:24:16.076Z,9.77
2023-01-03T02:26:56.571Z,9.69
2023-01-03T02:30:01.713Z,9.93
2023-01-03T02:32:40.965Z,9.43
2023-01-03T02:35:18.615Z,9.37
2023-01-03T02:37:56.262Z,9.82
2023-01-03T02:40:29.735Z,9.77
2023-01-03T02:43:06.110Z,9.49
2023-01-03T02:45:53.320Z,9.80
2023-01-03T02:48:33.376Z,9.79
2023-01-03T02:51:04.438Z,9.43
2023-01-03T02:53:39.361Z,9.58
2023-01-03T02:56:11.828Z,9.44
2023-01-03T02:58:44.886Z,9.64
2023-01-03T03:01:18.239Z,9.49
2023-01-03T03:04:02.126Z,9.43
2023-01-03T03:06:35.868Z,9.19
2023-01-03T03:09:05.150Z,9.57
2023-01-03T03:11:54.716Z,9.58
2023-01-03T03:14:29.358Z,9.40
2023-01-03T03:17:04.077Z,9.11
2023-01-03T03:19:53.716Z,9.56
2023-01-03T03:22:48.368Z,9.26
2023-01-03T03:25:21.166Z,9.58
2023-01-03T03:28:10.252Z,9.63
2023-01-03T03:30:42.068Z,9.31
2023-01-03T03:33:14.037Z,9.64
2023-01-03T03:35:49.174Z,9.46
2023-01-03T03:38:25.147Z,9.40
2023-01-03T03:41:18.757Z,9.28
2023-01-03T03:44:14.254Z,9.30
2023-01-03T03:46:54.492Z,9.43
2023-01-03T03:49:38.881Z,9.29
2023-01-03T03:52:13.020Z,9.26
2023-01-03T03:54:45.093Z,9.23
2023-01-03T03:57:19.782Z,9.39
2023-01-03T03:59:54.291Z,9.06
2023-01-03T04:02:26.277Z,9.15
2023-01-03T04:04:59.519Z,8.96
2023-01-03T04:07:29.659Z,9.39
2023-01-03T04:09:58.754Z,9.03
2023-01-03T04:12:27.376Z,8.85
2023-01-03T04:14:55.815Z,9.20
2023-01-03T04:17:24.035Z,9.19
2023-01-03T04:19:52.283Z,9.29
2023-01-03T04:22:20.747Z,9.36
2023-01-03T04:24:50.715Z,9.46
2023-01-03T04:27:19.276Z,9.39
2023-01-03T04:29:47.456Z,9.45
2023-01-03T04:32:16.073Z,9.35
2023-01-03T04:34:44.696Z,9.12
2023-01-03T04:37:14.020Z,9.21
2023-01-03T04:39:42.573Z,9.39
2023-01-03T04:42:26.197Z,9.47
2023-01-03T04:44:54.808Z,9.28
2023-01-03T04:47:23.072Z,9.26
2023-01-03T04:49:52.095Z,9.40
2023-01-03T04:52:20.261Z,9.20
2023-01-03T04:54:48.706Z,9.02
2023-01-03T04:57:18.543Z,9.19
2023-01-03T04:59:46.763Z,8.95
2023-01-03T05:02:15.076Z,9.15
2023-01-03T05:04:43.575Z,9.02
2023-01-03T05:07:12.225Z,9.24
2023-01-03T05:09:40.483Z,9.23
2023-01-03T05:12:12.296Z,9.28
2023-01-03T05:14:42.813Z,9.26
2023-01-03T05:17:11.338Z,8.90
2023-01-03T05:20:00.572Z,9.07
2023-01-03T05:22:46.764Z,9.44
2023-01-03T05:25:28.854Z,9.36
2023-01-03T05:27:58.353Z,9.09
2023-01-03T05:30:28.079Z,9.01
2023-01-03T05:32:56.728Z,9.04
2023-01-03T05:35:25.129Z,8.96
2023-01-03T05:37:54.517Z,9.19
2023-01-03T05:40:22.931Z,9.02
2023-01-03T05:42:51.188Z,8.77
2023-01-03T05:45:19.715Z,8.51
2023-01-03T05:47:49.720Z,8.55
2023-01-03T05:50:18.857Z,8.26
2023-01-03T05:52:49.040Z,8.45
2023-01-03T05:55:17.312Z,8.45
2023-01-03T05:57:47.379Z,8.13
2023-01-03T06:00:17.025Z,8.16
2023-01-03T06:02:45.578Z,8.41
2023-01-03T06:05:15.803Z,8.26
2023-01-03T06:07:44.122Z,8.02
2023-01-03T06:10:12.847Z,7.99
2023-01-03T06:12:41.034Z,8.13
2023-01-03T06:15:10.137Z,7.90
2023-01-03T06:17:57.960Z,7.67
2023-01-03T06:20:30.562Z,7.80
2023-01-03T06:22:59.093Z,7.72
2023-01-03T06:25:27.626Z,7.42
2023-01-03T06:27:56.610Z,7.38
2023-01-03T06:30:24.989Z,7.35
2023-01-03T06:32:53.367Z,7.53
2023-01-03T06:35:21.558Z,7.48
2023-01-03T06:37:51.449Z,7.38
2023-01-03T06:40:20.437Z,7.34
2023-01-03T06:42:48.847Z,7.32
2023-01-03T06:45:34.518Z,7.12
2023-01-03T06:48:23.542Z,7.50
2023-01-03T06:51:10.218Z,7.41
2023-01-03T06:53:42.413Z,7.39
2023-01-03T06:56:11.819Z,7.49
2023-01-03T06:58:40.528Z,7.54
2023-01-03T07:01:09.034Z,7.64
2023-01-03T07:03:37.460Z,7.38
2023-01-03T07:06:07.520Z,7.72
2023-01-03T07:08:36.305Z,7.54
2023-01-03T07:11:06.714Z,7.64
2023-01-03T07:13:52.730Z,7.81
2023-01-03T07:16:21.958Z,7.72
2023-01-03T07:18:55.361Z,7.87
2023-01-03T07:21:25.491Z,8.02
2023-01-03T07:23:55.050Z,7.89
2023-01-03T07:26:26.864Z,7.92
2023-01-03T07:28:55.358Z,8.10
2023-01-03T07:31:24.244Z,8.15
2023-01-03T07:33:53.244Z,8.16
2023-01-03T07:36:22.850Z,8.21
2023-01-03T07:38:51.350Z,8.24
2023-01-03T07:41:20.029Z,8.19
2023-01-03T07:43:49.873Z,8.22
2023-01-03T07:46:21.069Z,8.22
2023-01-03T07:48:51.623Z,8.56
2023-01-03T07:51:21.618Z,8.95
2023-01-03T07:53:51.657Z,9.68
2023-01-03T07:56:22.218Z,9.52
2023-01-03T07:58:52.443Z,9.33
2023-01-03T08:01:22.742Z,9.43
2023-01-03T08:03:52.193Z,9.48
2023-01-03T08:06:22.962Z,9.47
2023-01-03T08:09:12.247Z,9.34
2023-01-03T08:12:07.223Z,9.14
2023-01-03T08:14:37.115Z,9.10
2023-01-03T08:17:05.419Z,9.00
2023-01-03T08:19:34.084Z,8.93
2023-01-03T08:22:02.646Z,9.02
2023-01-03T08:24:30.866Z,8.96
2023-01-03T08:26:59.457Z,9.21
2023-01-03T08:29:27.809Z,9.04
2023-01-03T08:32:00.134Z,8.77
2023-01-03T08:34:34.571Z,8.77
2023-01-03T08:37:07.751Z,8.85
2023-01-03T08:39:40.089Z,9.18
2023-01-03T08:42:11.843Z,9.33
2023-01-03T08:44:40.953Z,9.46
2023-01-03T08:47:11.080Z,9.54
2023-01-03T08:49:40.416Z,9.58
2023-01-03T08:52:09.313Z,9.46
2023-01-03T08:54:39.286Z,9.17
2023-01-03T08:57:08.092Z,9.37
2023-01-03T08:59:36.478Z,9.27
2023-01-03T09:02:04.819Z,9.34
2023-01-03T09:04:34.796Z,9.30
2023-01-03T09:07:03.372Z,9.36
2023-01-03T09:09:32.545Z,9.38
2023-01-03T09:12:01.157Z,9.54
2023-01-03T09:14:31.143Z,9.53
2023-01-03T09:16:59.666Z,9.71
2023-01-03T09:19:28.005Z,9.88
2023-01-03T09:21:57.785Z,9.83
2023-01-03T09:24:26.213Z,9.90
2023-01-03T09:26:55.245Z,9.83
2023-01-03T09:29:23.794Z,10.18
2023-01-03T09:31:52.197Z,10.82
2023-01-03T09:34:21.336Z,11.23
2023-01-03T09:36:49.841Z,10.29
2023-01-03T09:39:20.349Z,9.62
2023-01-03T09:42:10.759Z,9.20
2023-01-03T09:44:51.274Z,9.21
2023-01-03T09:47:24.396Z,9.55
2023-01-03T09:50:27.356Z,9.72
2023-01-03T09:53:02.496Z,9.82
2023-01-03T09:55:56.616Z,10.19
2023-01-03T09:58:42.329Z,9.87
2023-01-03T10:01:56.828Z,10.36
2023-01-03T10:04:50.464Z,10.57
2023-01-03T10:07:35.010Z,10.63
2023-01-03T10:10:14.872Z,10.52
2023-01-03T10:12:56.739Z,10.84
2023-01-03T10:15:37.759Z,10.29
2023-01-03T10:18:17.835Z,10.87
2023-01-03T10:20:50.142Z,10.18
2023-01-03T10:23:20.124Z,10.17
2023-01-03T10:25:49.054Z,10.16
2023-01-03T10:28:21.730Z,9.78
2023-01-03T10:31:14.072Z,9.92
2023-01-03T10:33:45.584Z,10.09
2023-01-03T10:36:14.785Z,10.42
2023-01-03T10:38:51.580Z,10.58
2023-01-03T10:41:31.529Z,10.06
2023-01-03T10:44:02.676Z,10.23
2023-01-03T10:46:31.550Z,9.41
2023-01-03T10:49:31.336Z,9.84
2023-01-03T10:52:04.642Z,10.23
2023-01-03T10:54:47.820Z,10.35
2023-01-03T10:57:39.260Z,9.76
2023-01-03T11:00:31.873Z,10.63
2023-01-03T11:03:13.589Z,10.43
2023-01-03T11:05:43.878Z,10.15
2023-01-03T11:08:18.180Z,10.70
2023-01-03T11:10:58.439Z,11.08
2023-01-03T11:13:32.669Z,10.48
2023-01-03T11:16:05.159Z,10.72
2023-01-03T11:18:33.813Z,10.73
2023-01-03T11:21:14.463Z,9.93
2023-01-03T11:24:03.128Z,10.57
2023-01-03T11:26:43.002Z,10.49
2023-01-03T11:29:36.777Z,10.03
2023-01-03T11:32:20.075Z,9.75
2023-01-03T11:35:24.294Z,10.21
2023-01-03T11:38:03.096Z,9.87
2023-01-03T11:40:38.903Z,9.80
2023-01-03T11:43:21.605Z,9.96
2023-01-03T11:46:09.595Z,10.34
2023-01-03T11:49:02.664Z,10.11
2023-01-03T11:51:37.521Z,10.68
2023-01-03T11:54:20.212Z,10.93
2023-01-03T11:56:50.734Z,11.50
2023-01-03T11:59:43.232Z,11.32
2023-01-03T12:02:50.994Z,11.42
2023-01-03T12:05:44.334Z,11.09
2023-01-03T12:08:45.579Z,11.52
2023-01-03T12:11:27.082Z,11.37
2023-01-03T12:14:01.678Z,11.92
2023-01-03T12:16:34.779Z,11.03
2023-01-03T12:19:12.567Z,10.57
2023-01-03T12:21:49.513Z,10.45
2023-01-03T12:24:27.689Z,11.00
2023-01-03T12:27:01.986Z,10.52
2023-01-03T12:29:36.014Z,11.04
2023-01-03T12:32:11.406Z,11.99
2023-01-03T12:34:48.928Z,11.46
2023-01-03T12:37:23.556Z,11.37
2023-01-03T12:39:56.724Z,11.56
2023-01-03T12:42:37.417Z,11.09
2023-01-03T12:45:26.312Z,11.27
2023-01-03T12:48:05.874Z,11.60
2023-01-03T12:50:42.403Z,11.62
2023-01-03T12:53:20.493Z,11.64
2023-01-03T12:56:05.369Z,11.07
2023-01-03T12:58:47.692Z,11.03
2023-01-03T13:01:20.840Z,10.85
2023-01-03T13:03:54.661Z,11.06
2023-01-03T13:06:27.889Z,11.40
2023-01-03T13:09:01.765Z,10.72
2023-01-03T13:11:36.352Z,11.39
2023-01-03T13:14:07.039Z,11.03
2023-01-03T13:16:48.923Z,10.69
2023-01-03T13:19:51.584Z,11.01
2023-01-03T13:22:34.222Z,10.99
2023-01-03T13:25:40.646Z,10.68
2023-01-03T13:28:30.974Z,10.90
2023-01-03T13:31:48.320Z,11.09
2023-01-03T13:34:31.575Z,10.67
2023-01-03T13:37:24.500Z,10.53
2023-01-03T13:40:04.329Z,9.87
2023-01-03T13:42:37.668Z,10.47
2023-01-03T13:46:03.127Z,10.30
2023-01-03T13:48:53.503Z,10.89
2023-01-03T13:51:51.849Z,10.49
2023-01-03T13:54:56.205Z,10.68
2023-01-03T13:57:53.888Z,10.52
2023-01-03T14:00:24.564Z,11.03
2023-01-03T14:03:14.715Z,10.69
2023-01-03T14:06:29.204Z,10.47
2023-01-03T14:09:31.832Z,10.43
2023-01-03T14:12:18.947Z,10.37
2023-01-03T14:14:54.305Z,10.29
2023-01-03T14:17:28.489Z,10.29
2023-01-03T14:20:02.424Z,10.13
2023-01-03T14:22:38.230Z,10.43
2023-01-03T14:25:08.014Z,9.98
2023-01-03T14:27:40.703Z,9.74
2023-01-03T14:30:22.516Z,9.06
2023-01-03T14:32:51.300Z,9.34
2023-01-03T14:35:34.444Z,9.51
2023-01-03T14:38:07.081Z,9.74
2023-01-03T14:40:36.479Z,9.80
2023-01-03T14:43:07.140Z,9.26
2023-01-03T14:45:35.789Z,9.06
2023-01-03T14:48:07.016Z,9.09
2023-01-03T14:50:35.389Z,9.20
2023-01-03T14:53:04.667Z,9.28
2023-01-03T14:55:34.705Z,9.15
2023-01-03T14:58:22.611Z,8.99
2023-01-03T15:00:53.940Z,8.97
2023-01-03T15:03:22.850Z,8.92
2023-01-03T15:05:55.166Z,8.71
2023-01-03T15:08:27.621Z,8.53
2023-01-03T15:11:00.827Z,8.25
2023-01-03T15:13:34.806Z,8.11
2023-01-03T15:16:07.286Z,8.11
2023-01-03T15:18:38.949Z,8.23
2023-01-03T15:21:07.817Z,8.25
2023-01-03T15:23:42.250Z,8.08
2023-01-03T15:26:22.695Z,7.77
2023-01-03T15:28:53.280Z,7.62
2023-01-03T15:31:37.757Z,7.65
2023-01-03T15:34:15.838Z,7.24
2023-01-03T15:36:48.637Z,7.21
2023-01-03T15:39:20.121Z,7.38
2023-01-03T15:45:12.832Z,7.39
2023-01-03T15:47:45.017Z,7.41
2023-01-03T15:50:18.952Z,7.28
2023-01-03T15:52:48.633Z,7.39
2023-01-03T15:55:18.434Z,7.23
2023-01-03T15:57:53.999Z,7.35
2023-01-03T16:00:24.441Z,7.22
2023-01-03T16:02:54.575Z,7.29
2023-01-03T16:05:23.588Z,7.04
2023-01-03T16:07:51.968Z,6.90
2023-01-03T16:10:23.010Z,6.93
2023-01-03T16:12:51.520Z,6.95
2023-01-03T16:15:22.401Z,6.79
2023-01-03T16:17:52.736Z,6.79
2023-01-03T16:20:22.443Z,6.77
2023-01-03T16:23:00.808Z,6.76
2023-01-03T16:25:30.557Z,6.76
2023-01-03T16:27:58.902Z,6.84
2023-01-03T16:30:27.434Z,6.84
2023-01-03T16:32:55.645Z,6.83
2023-01-03T16:35:25.820Z,6.75
2023-01-03T16:37:53.871Z,6.82
2023-01-03T16:40:22.600Z,6.89
2023-01-03T16:42:50.959Z,6.86
2023-01-03T16:45:19.806Z,6.83
2023-01-03T16:47:49.658Z,6.75
2023-01-03T16:50:20.697Z,6.66
2023-01-03T16:52:57.195Z,6.59
2023-01-03T16:55:28.153Z,6.58
2023-01-03T16:57:57.193Z,6.44
2023-01-03T17:00:27.832Z,6.55
2023-01-03T17:03:00.181Z,6.58
2023-01-03T17:05:30.289Z,6.52
2023-01-03T17:08:04.115Z,6.70
2023-01-03T17:10:36.523Z,6.46
2023-01-03T17:13:12.596Z,6.28
2023-01-03T17:15:41.719Z,6.25
2023-01-03T17:18:18.637Z,6.26
2023-01-03T17:20:49.341Z,6.32
2023-01-03T17:23:19.794Z,6.32
2023-01-03T17:25:47.851Z,6.30
2023-01-03T17:28:16.490Z,6.39
2023-01-03T17:30:45.349Z,6.36
2023-01-03T17:33:16.046Z,6.24
2023-01-03T17:35:46.392Z,5.93
2023-01-03T17:38:31.113Z,5.84
2023-01-03T17:41:00.929Z,5.99
2023-01-03T17:43:29.372Z,6.04
2023-01-03T17:46:23.079Z,5.98
2023-01-03T17:49:09.995Z,5.87
2023-01-03T17:51:38.348Z,5.73
2023-01-03T17:54:06.787Z,5.57
2023-01-03T17:56:37.409Z,5.62
2023-01-03T17:59:06.012Z,5.59
2023-01-03T18:01:34.807Z,5.75
2023-01-03T18:04:03.196Z,5.73
2023-01-03T18:06:31.573Z,5.61
2023-01-03T18:09:03.601Z,5.56
2023-01-03T18:11:32.051Z,5.59
2023-01-03T18:14:01.697Z,5.51
2023-01-03T18:16:30.656Z,5.53
2023-01-03T18:18:59.238Z,5.35
2023-01-03T18:21:28.868Z,5.10
2023-01-03T18:24:00.009Z,5.24
2023-01-03T18:26:34.617Z,5.50
2023-01-03T18:29:05.125Z,5.62
2023-01-03T18:31:33.908Z,5.66
2023-01-03T18:34:04.801Z,5.53
2023-01-03T18:36:38.658Z,5.58
2023-01-03T18:39:12.169Z,5.56
2023-01-03T18:41:42.008Z,5.45
2023-01-03T18:44:20.588Z,5.56
2023-01-03T18:46:49.008Z,5.62
2023-01-03T18:49:18.169Z,5.69
2023-01-03T18:51:49.539Z,5.57
2023-01-03T18:54:20.148Z,5.51
2023-01-03T18:56:48.554Z,5.51
2023-01-03T18:59:22.072Z,5.50
2023-01-03T19:01:51.641Z,5.43
2023-01-03T19:04:20.010Z,5.34
2023-01-03T19:06:51.476Z,4.87
2023-01-03T19:09:22.908Z,4.84
2023-01-03T19:11:52.601Z,4.75
2023-01-03T19:14:22.479Z,4.56
2023-01-03T19:16:51.304Z,4.97
2023-01-03T19:19:19.619Z,5.05
2023-01-03T19:21:49.088Z,5.02
2023-01-03T19:24:34.628Z,4.95
2023-01-03T19:27:13.621Z,4.93
2023-01-03T19:29:44.094Z,5.01
2023-01-03T19:32:17.973Z,5.14
2023-01-03T19:34:46.690Z,5.14
2023-01-03T19:37:14.897Z,5.05
2023-01-03T19:39:44.128Z,4.99
2023-01-03T19:42:48.077Z,4.95
2023-01-03T19:45:25.403Z,4.99
2023-01-03T19:47:53.669Z,4.95
2023-01-03T19:50:23.646Z,4.80
2023-01-03T19:52:53.359Z,4.76
2023-01-03T19:55:25.086Z,4.79
2023-01-03T19:57:53.980Z,4.50
2023-01-03T20:00:26.886Z,4.64
2023-01-03T20:02:58.692Z,4.20
2023-01-03T20:05:30.464Z,4.18
2023-01-03T20:07:58.953Z,4.21
2023-01-03T20:10:27.642Z,4.09
2023-01-03T20:12:58.472Z,4.14
2023-01-03T20:15:31.050Z,4.28
2023-01-03T20:18:00.400Z,4.27
2023-01-03T20:20:32.392Z,4.29
2023-01-03T20:23:05.820Z,4.60
2023-01-03T20:25:37.138Z,4.76
2023-01-03T20:28:06.568Z,4.67
2023-01-03T20:30:36.575Z,4.74
2023-01-03T20:33:05.137Z,4.57
2023-01-03T20:36:09.643Z,4.58
2023-01-03T20:38:27.023Z,4.54
2023-01-03T20:40:57.563Z,4.45
2023-01-03T20:43:25.811Z,4.38
2023-01-03T20:45:58.456Z,4.29
2023-01-03T20:48:27.607Z,4.48
2023-01-03T20:50:56.553Z,4.59
2023-01-03T20:53:26.514Z,4.43
2023-01-03T20:55:55.160Z,4.24
2023-01-03T20:58:26.463Z,3.92
2023-01-03T21:01:04.271Z,3.88
2023-01-03T21:03:34.584Z,3.83
2023-01-03T21:06:03.639Z,3.83
2023-01-03T21:08:49.502Z,3.87
2023-01-03T21:11:18.170Z,3.91
2023-01-03T21:13:46.575Z,4.10
2023-01-03T21:16:26.832Z,4.16
2023-01-03T21:18:55.224Z,4.07
2023-01-03T21:21:24.754Z,3.94
2023-01-03T21:23:54.398Z,3.87
2023-01-03T21:26:22.810Z,3.89
2023-01-03T21:28:51.195Z,3.83
2023-01-03T21:31:22.911Z,3.89
2023-01-03T21:33:51.604Z,3.81
2023-01-03T21:36:24.987Z,3.77
2023-01-03T21:38:53.600Z,3.71
2023-01-03T21:41:24.102Z,3.84
2023-01-03T21:43:55.669Z,3.95
2023-01-03T21:46:27.217Z,3.75
2023-01-03T21:48:56.331Z,3.71
2023-01-03T21:51:37.272Z,3.67
2023-01-03T21:54:09.213Z,3.78
2023-01-03T21:56:46.116Z,3.96
2023-01-03T21:59:15.230Z,3.98
2023-01-03T22:02:03.640Z,3.96
2023-01-03T22:04:32.421Z,3.95
2023-01-03T22:07:01.893Z,4.08
2023-01-03T22:09:49.397Z,4.05
2023-01-03T22:12:18.616Z,3.96
2023-01-03T22:14:47.173Z,3.98
2023-01-03T22:17:17.720Z,4.16
2023-01-03T22:19:46.141Z,4.15
2023-01-03T22:22:14.296Z,4.23
2023-01-03T22:24:42.607Z,4.10
2023-01-03T22:27:10.999Z,3.96
2023-01-03T22:29:39.706Z,4.12
2023-01-03T22:32:10.313Z,3.91
2023-01-03T22:34:40.551Z,3.93
2023-01-03T22:37:08.941Z,3.89
2023-01-03T22:39:37.407Z,3.97
2023-01-03T22:42:06.078Z,3.85
2023-01-03T22:44:34.368Z,3.76
2023-01-03T22:47:02.952Z,3.76
2023-01-03T22:49:31.438Z,3.54
2023-01-03T22:52:01.253Z,3.41
2023-01-03T22:54:30.361Z,3.46
2023-01-03T22:56:58.718Z,3.63
2023-01-03T22:59:27.606Z,3.82
2023-01-03T23:01:56.213Z,3.87
2023-01-03T23:04:26.481Z,3.80
2023-01-03T23:06:55.314Z,3.76
2023-01-03T23:09:25.347Z,3.86
2023-01-03T23:12:11.090Z,3.76
2023-01-03T23:14:39.502Z,3.58
2023-01-03T23:17:25.711Z,3.56
2023-01-03T23:19:53.993Z,3.38
2023-01-03T23:22:22.173Z,3.61
2023-01-03T23:24:52.155Z,3.68
2023-01-03T23:27:20.311Z,3.73
2023-01-03T23:29:49.080Z,3.86
2023-01-03T23:32:17.461Z,3.85
2023-01-03T23:34:45.565Z,3.74
2023-01-03T23:37:14.019Z,3.50
2023-01-03T23:39:43.096Z,3.62
2023-01-03T23:42:13.085Z,3.75
2023-01-03T23:44:41.361Z,3.81
2023-01-03T23:47:12.321Z,4.01
2023-01-03T23:49:41.430Z,4.07
2023-01-03T23:52:09.806Z,4.14
2023-01-03T23:54:38.417Z,4.04
2023-01-03T23:57:06.881Z,4.09
2023-01-03T23:59:37.111Z,3.90
